Hauptseite
METAR-TAF:

METAR-TAF

Flughäfen :

Antofagasta, Chile

Flughafen Antofagasta

Breite: 23-26S, Länge: 070-26W, Höhe: 135 m

Beobachtung

Neuester Wetterbericht von vor 50 Minuten, um 05:00 UTC
Wind 3 kt aus Süd
Temperatur 14°C
Luftfeuchtigkeit 88%
Luftdruck 1018 hPa
Sichtweite 10 km oder mehr
Geschlossene Wolkendecke in der Höhe von 1100 ft

METAR: SCFA 290500Z 19003KT 9999 OVC011 14/12 Q1018 NOSIG

Zeit: 01:50 (05:50 UTC)

Prognose

Neuester Wetterbericht von vor 1 Stunde und 17 Minuten, um 04:33 UTC
Gültige Prognose vom 29 um 06 UTC bis 30 um 06 UTC
Wind 6 kt aus Süd/Südost
Sichtweite 10 km oder mehr
Übergehend zu
vom 29 um 13 UTC bis 29 um 15 UTC
Durchbrochene Bewölkung in der Höhe von 1500 ft
Übergehend zu
vom 29 um 16 UTC bis 29 um 18 UTC
Wind 5 kt aus Nordost

TAF: SCFA 290433Z 2906/3006 15006KT 9999 OCV013 TN12/2910Z TX17/2917Z BECMG 2913/2915 BKN015 BECMG 2916/2918 19013KT FEWG 3001/3003 04005KT

Wetterbeobachtungen und Prognosen von mehr als 4000 Flughäfen (METAR und TAF Bericht).

Die verfügbaren Stationen werden durch gelbe und rote Markierungen auf der Karte dargestellt.

Führen Sie die Maus auf sie, um den Namen der Station zu sehen.

Darauf klicken, um die Beobachtung von Wetterbeobachtungen und Prognosen zu sehen.

Um die Karte zu ändern : klicken Sie auf den grünen Tasten mit einem schwarzen Kreuz Zum Vergrößern, auf den grünen Button mit einem Gedankenstrich zu verkleinern, oder auf die grünen Pfeile für benachbarte Karten.


METAR-TAF: